METAR

RPLL (MNL) – NINOY AQUINO INTERNATIONAL AIRPORT (MANILA INTERNATIONAL AIRPORT

METAR RPLL 271400Z 04004KT 010V070 9999 FEW025 SCT100 28/24 Q1008 NOSIG RMK A2977=
METAR RPLL 271300Z VRB02KT 9999 FEW025 SCT100 28/24 Q1008 NOSIG RMK A2977=
METAR RPLL 271200Z  16003KT 090V210 9999 FEW023 CB SCT025 BKN100 29/25 Q1008 NOSIG RMK A2977 CB SW=
METAR RPLL 271100Z  VRB03KT 9999 FEW023CB SCT025 BKN100 29/26 Q1007 NOSIG RMK A2974 CB LTG OCNL W= 
METAR RPLL 271000Z VRB04KT 9999 SCT025 SCT300 29/26 Q1007 NOSIG RMK A2974=
METAR RPLL 270900Z  VRB04KT 9999 SCT025 BKN100 30/26 Q1006 NOSIG RMK A2971=
METAR RPLL 270800Z 15005KT 090V200 9999 SCT025 BKN100 32/26 Q1006 NOSIG RMK A2971=
METAR RPLL 270700Z  11005KT 070V150 9999 FEW023CB SCT025 BKN100 31/26 Q1005 NOSIG RMK A2968 CB E=
METAR RPLL 270600Z 13006KT 090V220 9999 FEW023CB  SCT025 BKN100 31/26 Q1006 NOSIG RMK A2971 CB N= 
METAR RPLL 270500Z  13006KT 070V190 9999 SCT023 BKN090 31/26 Q1007 NOSIG RMK A2974=
METAR RPLL 270400Z 10009KT 060V150 9999 SCT023 BKN090 30/25 Q1007 NOSIG RMK A2974=
METAR RPLL 270300Z 08007KT 060V120 9999 SCT023 BKN090 30/26 Q1008 NOSIG RMK A2977=
METAR RPLL 270200Z VRB03KT 9999 FEW025 SCT100 31/25 Q1008 NOSIG RMK A2977=
METAR RPLL 270100Z 01005KT 340V040 9999 FEW025 BKN100 28/25 Q1009 NOSIG RMK A2980=
METAR RPLL 270000Z 28005KT 260V320 9999 SCT022 BKN090 27/25 Q1008 NOSIG RMK A2977=
METAR RPLL 262300Z 10003KT 060V150 6000 -RA SCT015 OVC080 26/25 Q1008 RESHRA NOSIG RMK A2977=
SPECI RPLL 262217Z 07010KT 6000 SHRA BKN014 OVC080 27/25 Q1008 TEMPO 8000 -RA RMK A2977=
METAR RPLL 262200Z VRB02KT 9999 VCSH SCT014 BKN090 28/25 Q1007 TEMPO 8000 -SHRA RMK A2974 VCSH NE-SE=
METAR RPLL 262100Z VRB02KT 9999 FEW025 BKN100 28/26 Q1007 NOSIG RMK A2974=
METAR RPLL 262000Z 20003KT 180V240 9999 FEW025 BKN100 BKN300 28/25 Q1007 NOSIG RMK A2974=
METAR RPLL 261900Z 14003KT 110V180 9999 FEW025 BKN300 28/24 Q1007 NOSIG RMK A2974=
METAR RPLL 261800Z 07003KT 050V130 9999 FEW025 BKN090 28/25 Q1007 NOSIG RMK A2974=
METAR RPLL 261700Z VRB02KT 9999 FEW025 29/25 Q1008 NOSIG RMK A2977=
METAR RPLL 261600Z 12003KT 080V160 9999 FEW025 29/25 Q1008 NOSIG RMK A2977=
METAR RPLL 261500Z 24003KT 200V260 9999 FEW025 29/26 Q1009 NOSIG RMK A2980=
METAR RPLL 261400Z VRB01KT 9999 FEW025 29/26 Q1008 NOSIG RMK A2977=
METAR RPLL 261300Z 20003KT 170V230 9999 FEW025 30/26 Q1008 NOSIG RMK A2977=
METAR RPLL 261200Z VRB02KT 9999 FEW023CB SCT100 30/26 Q1007 NOSIG RMK A2974 CB LTG OCNL SW,NW=
METAR RPLL 261100Z VRB02KT 9999 FEW025 SCT100 30/26 Q1007 NOSIG RMK A2974=
METAR RPLL 261000Z 11004KT 060V140 9999 FEW025 BKN090 31/26 Q1006 NOSIG RMK A2971=
METAR RPLL 260900Z 28005KT 270V330 9999 SCT025 BKN090 31/25 Q1006 NOSIG RMK A2971=
METAR RPLL 260800Z 32008KT 9999 SCT025 BKN090 32/25 Q1005 NOSIG RMK A2968=
METAR RPLL 260700Z 31008KT 9999 FEW023CB SCT025 SCT100 33/25 Q1006 NOSIG RMK A2971 CB NE=
METAR RPLL 260600Z 28007KT 250V320 9999 SCT025 33/25 Q1006 NOSIG RMK A2971=
METAR RPLL 260500Z 30007KT 260V340 9999 SCT025 BKN090 31/25 Q1007 NOSIG RMK A2974=
METAR RPLL 260400Z 30008KT 270V350 9999 SCT025 BKN090 31/24 Q1008 NOSIG RMK A2977=
METAR RPLL 260300Z 33007KT 290V360 9999 SCT025 SCT300 32/25 Q1008 NOSIG RMK A2977=
METAR RPLL 260200Z 29006KT 240V350 9999 SCT025 BKN300 31/25 Q1009 NOSIG RMK A2980=
METAR RPLL 260100Z 32005KT 270V360 9999 SCT025 BKN300 30/25 Q1009 NOSIG RMK A2980=
METAR RPLL 260000Z 01003KT 290V080 9999 FEW025 BKN300 30/25 Q1009 NOSIG RMK A2980=
METAR RPLL 252300Z VRB01KT 9999 FEW025 BKN300 29/25 Q1009 NOSIG RMK A2980=
METAR RPLL 252200Z VRB01KT 9999 FEW025 27/25 Q1008 NOSIG RMK A2977=
METAR RPLL 252100Z VRB01KT 9999 FEW025 SCT100 BKN300 27/25 Q1008 NOSIG RMK A2977=
METAR RPLL 252000Z 06004KT 9999 SCT025 BKN100 27/25 Q1008 NOSIG RMK A2977=
METAR RPLL 251900Z VRB02KT 9999 FEW025 SCT100 28/25 Q1008 NOSIG RMK A2977=
METAR RPLL 251800Z 00000KT 9999 FEW025 27/25 Q1008 NOSIG RMK A2977=
METAR RPLL 251700Z 35003KT 310V060 9999 FEW025 28/25 Q1008 NOSIG RMK A2977=
METAR RPLL 251600Z VRB02KT 9999 FEW025 BKN090 28/25 Q1008 NOSIG RMK A2977=
METAR RPLL 251500Z 11003KT 060V160 9999 FEW025 BKN090 29/25 Q1009 NOSIG RMK A2980=
METAR RPLL 251400Z VRB02KT 9999 FEW025 29/25 Q1010 NOSIG RMK A2983=
METAR RPLL 251300Z VRB01KT 9999 FEW025 29/24 Q1009 NOSIG RMK A2980=
METAR RPLL 251200Z VRB01KT 9999 FEW025 SCT100 29/24 Q1009 NOSIG RMK A2980=

 

RPVM (CEB) – MACTAN-CEBU INTERNATIONAL (INTERNATIONAL AIRPORT

METAR RPVM 271400Z VRB02KT 9999 FEW020 SCT100 28/24 Q1009 RMK A2980=
METAR RPVM 271300Z VRB02KT 9999 FEW020 28/24 Q1009 RMK A2980=
METAR RPVM 271200Z 23004KT 220V280 9999 FEW020 SCT300 29/25 Q1008 RMK A2977=
METAR RPVM 271100Z 22005KT 9999 FEW020 SCT300 29/25 Q1008 RMK A2977=
METAR RPVM 271000Z 23006KT 9999 FEW020 BKN100 29/25 Q1007 RMK A2974= 
METAR RPVM 270900Z 23008KT 9999 FEW020 SCT100 BKN300 30/24 Q1006 RMK A2971=
METAR RPVM 270800Z 24009KT 9999 FEW020 BKN300 31/24 Q1006 RMK A2971=
METAR RPVM 270700Z  25010KT 210V280 9999 FEW018CB BKN100 BKN300 31/25 Q1006 RETS RMK A2971 CB S=
METAR RPVM270600Z 22009KT 9999 TS SCT018CB BKN250 32/24 Q1006 RMK A2971 CB SE-SW,W-N=
METAR RPVM 270500Z  23013KT 9999 SCT018CB SCT300 32/25 Q1006 RMK A2971 CB SE-SW/W-N=
METAR RPVM 270400Z 22011KT 9999 SCT018CB 33/24 Q1007 RMK A2974 CB NE/ESE-S/WSW-NNW=
METAR RPVM 270300Z  25007KT 210V280 9999 FEW017CB 32/24 Q1008 RMK A2977 CB NE,SW=
METAR RPVM 270200Z 21006KT 170V240 9999 FEW020 SCT300 31/24 Q1009 RMK A2980=
METAR RPVM 270100Z 23006KT 9999 SCT020 29/25 Q1009 RMK A2980=
METAR RPVM 270000Z 23006KT 9999 FEW020 29/24 Q1009 RMK A2980=
METAR RPVM 262300Z 24003KT 9999 FEW020 28/24 Q1008 RMK A2977=
METAR RPVM 262200Z VRB02KT 9999 FEW020 SCT300 25/23 Q1008 RMK A2977=
METAR RPVM 262100Z VRB02KT 9999 FEW020 SCT300 25/22 Q1008 RMK A2977=
METAR RPVM 262000Z 29004KT 9999 FEW020 BKN300 25/23 Q1008 RMK A2977=
METAR RPVM 261900Z VRB02KT 9999 FEW020 BKN300 25/23 Q1008 RMK A2977=
METAR RPVM 261800Z 35002KT 9999 FEW020 BKN300 26/24 Q1008 RMK A2977=
METAR RPVM 261700Z 18001KT 9999 FEW020TCU BKN300 26/24 Q1008 RMK A2977 TCU NE=
METAR RPVM 261600Z 31002KT 9999 FEW020 BKN300 26/24 Q1009 RMK A2980=
METAR RPVM 261500Z 31003KT 9999 FEW020 SCT100 27/24 Q1010 RMK A2983=
METAR RPVM 261400Z 30003KT 9999 FEW018CB SCT100 27/24 Q1010 RMK A2983 CB NE=
METAR RPVM 261300Z 23002KT 9999 FEW018CB BKN100 27/24 Q1009 RMK  A2980 CB NE=
METAR RPVM 261200Z 18004KT 9999 FEW018CB OVC250 28/24 Q1009 RMK  A2980 CB NE=
METAR RPVM 261100Z 22003KT 9999 FEW020 BKN100 28/24 Q1008 RMK A2977=
METAR RPVM 261000Z 23006KT 9999 FEW018CB OVC100 28/24 Q1008 RMK A2977 CB SW-W=
METAR RPVM 260900Z 20004KT 9999 FEW018CB OVC100 29/24 Q1007 RMK A2974 CB N/SW/W=
METAR RPVM 260800Z 19007KT 9999 SCT018CB BKN100 30/24 Q1007 RMK A2974 CB SE-S THRU W-NW=
METAR RPVM 260700Z 02003KT 330V060 9999 SCT018CB SCT100 32/22 Q1006 RMK A2971 CB NE,SE,S THRU W=
METAR RPVM 260600Z 34011KT 9999 TS SCT018CB BKN300 31/23 Q1006 RMK A2971 CB SSE-SW/W-NW=
METAR RPVM 260500Z VRB03KT 9999 SCT018CB BKN300 33/24 Q1006 RMK A2971 CB W THRU N,SE-S=
METAR RPVM 260400Z 19008KT 130V260 9999 FEW018CB BKN300 32/25 Q1007 RMK A2974 WNW-NNE=
METAR RPVM 260300Z 20009KT 170V230 9999 FEW018CB BKN300 31/25 Q1008 RMK A2977 CB NNW/NE=
METAR RPVM 260200Z 22005KT 180V240 9999 FEW020 BKN250 31/25 Q1008 RMK A2977=
METAR RPVM 260100Z 23005KT 9999 FEW020TCU BKN100 29/25 Q1009 RMK A2980 TCU NW=
METAR RPVM 260000Z 00000KT 9999 SCT020 BKN100 28/25 Q1009 RERA RMK A2980=
METAR RPVM 252300Z 31003KT 8000 -RA SCT020 OVC090 27/25 Q1009 RMK A2980=
METAR RPVM 252200Z 32003KT 9999 FEW018CB OVC100 26/25 Q1008 RMK A2977 CB SE-S=
METAR RPVM 252100Z 00000KT 9999 FEW020 OVC100 26/24 Q1008 RMK A2977 CB E=
METAR RPVM 252000Z 00000KT 9999 FEW018CB OVC100 27/24 Q1008 RMK A2977 CB E=
METAR RPVM 251900Z 19002KT 9999 FEW018CB OVC100 27/24 Q1008 RMK A2977 CB SW/W=
METAR RPVM 251800Z 23002KT 9999 FEW018CB OVC100 27/25 Q1008 RMK A2977 CB SW/W/NW=
METAR RPVM 251700Z 00000KT 9999 FEW018CB OVC100 27/25 Q1009 RMK A2980 CB E/SW/NW=
METAR RPVM 251600Z VRB02KT 9999 FEW020 OVC100 27/25 Q1010 RMK A2983=
METAR RPVM 251500Z 35003KT 9999 FEW018CB OVC250 27/25 Q1010 RMK A2983 CB N-NE=
METAR RPVM 251400Z 36008KT 9999 FEW018CB BKN100 28/25 Q1010 RETS RMK A2983 CB N-NE W/ OCNL LTG=
METAR RPVM 251300Z 17003KT 130V190 9999 TS FEW018CB SCT100 28/25 Q1009 RMK A2980 CB N-NE W/ OCNL LTG=
METAR RPVM 251200Z 21002KT 9999 FEW018CB BKN100 28/25 Q1009 RMK A2980 CB NE W/ OCNL LTG=

 

RPLC (CRK) – CLARK INTERNATIONAL AIRPORT

METAR RPLC 271400Z  14002KT 7000 FEW015CB SCT020 BKN100 25/24 Q1009 RETS RMK A2980 CB NE W/ FRQ LTG=
METAR RPLC 271300Z 02004KT 7000  -TS FEW015CB SCT020 BKN100 25/23 Q1009 RETSRA RMK A2980 CB N-E W/ OCNL LTNG=
METAR RPLC 271200Z 22012KT 7000 -TSRA FEW015CB SCT020 OVC100 25/23 Q1008 RMK A2977 CB N -W W/ OCCNL LTG=
METAR RPLC 271100Z 32008KT 7000 -RA SCT020 OVC100 28/25 Q1009 RMK A2980=
METAR RPLC 271000Z 09004KT 7000 SCT020 OVC100 29/25 Q1007 RMK A2974= 
METAR RPLC 270900Z 18008KT 8000 SCT020 BKN100 30/26 Q1006 NOSIG RMK A2971=
METAR RPLC 270800Z 18010KT 8000 SCT020 BKN100 31/25 Q1006 NOSIG RMK A2971= 
METAR RPLC 270700Z 09004KT 8000 FEW015CB SCT020 BKN100 34/25 Q1006 NOSIG RMK A2971 CB NE=
METAR RPLC 270600Z 36004KT 8000 SCT020 BKN100 35/25 Q1006 NOSIG RMK A2971=
METAR RPLC 270500Z 01004KT 8000 SCT020 BKN300 35//25 Q1007 NOSIG RMK A2974=
METAR RPLC 270400Z 36004KT 7000 SCT020 BKN300 34/25 Q1008 NOSIG RMK A2977=
METAR RPLC 270300Z 18002KT 7000 SCT020 BKN100 34/25 Q1009 NOSIG RMK A2980=
METAR RPLC 270200Z 32002KT 7000 SCT020 BKN300 32/25 Q1009 NOSIG RMK A2980=
METAR RPLC 270100Z 18004KT 7000 SCT020 BKN300 31/25 Q1009 NOSIG RMK A2980=
METAR RPLC 270000Z 18004KT 7000 FEW020 BKN300 29/25 Q1009 NOSIG RMK A2980=
METAR RPLC 262300Z 22004KT 6000 FEW020 BKN300 29/25 Q1009 NOSIG RMK A2980=
METAR RPLC 262200Z 20004KT 6000 SCT020 BKN300 26/25 Q1008 NOSIG RMK A2977=
METAR RPLC 262100Z 34002KT 7000 SCT020 BKN300 26/25 Q1007 NOSIG RMK A2974=
METAR RPLC 262000Z 32002KT 7000 SCT020 BKN300 26/25 Q1007 NOSIG RMK A2974=
METAR RPLC 261900Z 32002KT 7000 SCT020 BKN300 27/25 Q1008 NOSIG RMK A2977=
METAR RPLC 261800Z 20004KT 7000 SCT020 OVC100 27/25 Q1008 NOSIG RMK A2977=
METAR RPLC 261700Z 22002KT 7000 SCT020 BKN100 27/25 Q1009 NOSIG RMK A2980=
METAR RPLC 261600Z 15002KT 8000 SCT020 BKN300 27/25 Q1009 NOSIG RMK A2980=
METAR RPLC 261500Z 27002KT 8000 SCT020 BKN300 27/25 Q1009 NOSIG RMK A2980=
METAR RPLC 261400Z 31002KT 7000 SCT020 BKN100 27/25 Q1009 NOSIG RMK A2980=
METAR RPLC 261300Z 27003KT 7000 SCT020 BKN300 26/24 Q1009 RMK A2980=
METAR RPLC 261200Z 25004KT 7000 -SHRA FEW015CB SCT018 BKN100 26/25 Q1009 RMK A2980 CB SW W/ OCNL LTG=
METAR RPLC 271100Z 34008KT 8000 FEW015CB SCT020 OVC100 28/25 Q1009 RESHRA RMK A2980 CB NW W/ OCNL LTG=
SPECI RPLC 261025Z 36016G18KT 8000 FEW015CB SCT020 BKN100 30/25 Q1008 RMK A2977 CB N=
METAR RPLC 261000Z 02002KT 8000 FEW015CB SCT020 BKN100 32/24 Q1007 RMK A2974 CB N=
METAR RPLC 260900Z 36006KT 9999 SCT020 BKN300 34/24 Q1007 NOSIG RMK A2974=
METAR RPLC 260800Z 36004KT 9999 SCT020 BKN300 35/24 Q1006 NOSIG RMK A2971=
METAR RPLC 260800Z  34003KT 290V010 9999 FEW020 32/25 Q1006 NOSIG RMK A2971=
METAR RPLC 260700Z 36008KT 9999 SCT020 BKN300 35/24 Q1006 NOSIG RMK A2971= 
METAR RPLC 260600Z 34008KT 9999 SCT020 BKN300 35/23 Q1007 NOSIG RMK A2974=
METAR RPLC 260500Z 36004KT 9999 SCT020 BKN100 34/23 Q1008 NOSIG RMK A2977=
METAR RPLC 260400Z 02002KT 9999 SCT020 BKN300 33/23 Q1009 NOSIG RMK A2980=
METAR RPLC 260300Z  04002KT 9999 FEW020 BKN300 33/23 Q1010 NOSIG RMK A2983=
METAR RPLC 260200Z 02002KT 9999 FEW020 BKN300 33/24 Q1010 NOSIG RMK A2983=
METAR RPLC 260100Z 36002KT 9999 FEW020 BKN300 31/24 Q1010 NOSIG RMK A2983=
METAR RPLC 260000Z 35004KT 9999 FEW020 BKN300 30/24 Q1011 NOSIG RMK A2985=
METAR RPLC 252300Z 26002KT 9999 FEW020 BKN300 29/24 Q1010 NOSIG RMK A2983=
METAR RPLC 252200Z 09002KT 9999 FEW020 BKN300 26/23 Q1010 NOSIG RMK A2983=
METAR RPLC 252100Z 32002KT 9999 FEW020 SCT300 26/23 Q1009 NOSIG RMK A2980=
METAR RPLC 252000Z 25002KT 9999 FEW020 SCT300 26/23 Q1009 NOSIG RMK A2980=
METAR RPLC 251900Z 25002KT 9999 FEW020 SCT300 26/23 Q1009 NOSIG RMK A2980=
METAR RPLC 251800Z 27002KT 9999 FEW020 BKN300 26/23 Q1009 NOSIG RMK A2980=
METAR RPLC 251700Z 24002KT 9999 FEW020 BKN300 27/23 Q1010 NOSIG RMK A2983=
METAR RPLC 251600Z 26002KT 9999 FEW020 BKN300 27/24 Q1010 NOSIG RMK A2983=
METAR RPLC 251500Z 29002KT 9999 FEW020 BKN300 28/24 Q1010 NOSIG RMK A2983=
METAR RPLC 251400Z 27002KT 9999 FEW020 BKN300 28/24 Q1010 NOSIG RMK A2983=
METAR RPLC 251300Z 33003KT 9999 FEW015CB SCT020 BKN300 28/24 Q1011 RMK A2985 DSTNT LTG W=
METAR RPLC 251200Z 36008KT 9999 FEW015CB SCT020 BKN300 29/24 Q1011 RMK A2985 DSNT OCNL LTG SW-NW=

 

RPLB (SFS) – SUBIC BAY INTERNATIONAL AIRPORT

METAR RPLB 271400KT 06002KT 9999 FEW018CB FEW020 BKN080 26/26 Q1009 RMK A2980 OCNL LTG NE/W=

METAR RPLB 271300Z 10003KT 060V130 9999 FEW018CB FEW020 BKN080 27/24 Q1009 RMK A2980 OCNL LTG NE=
METAR RPLB 271200Z VRB02KT 9999 FEW018CB FEW020 BKN300 26/25 Q1009 RMK A2980 FRQ LTG S,N=
METAR RPLB 271100Z VRB02KT 9999 FEW018CB FEW020 BKN080 26/25 Q1008 RMK A2977 OCNL LTG SE,N=
METAR RPLB 271000Z VRB02KT 9999 FEW020 SCT080 BKN300 27/24 Q1008 NOSIG RMK A2977=
METAR RPLB 270900Z 01003KT 320V050 9999 FEW020 BKN080 27/23 Q1007 RETS RMK A2974=
METAR RPLB 270800Z 36003KT 300V050 9000 TS FEW018CB FEW020 BKN080 26/24 Q1007 RESHRA RMK A2974 CB NW=
METAR RPLB 270700Z 21007KT 9000 -TSRA FEW018CB FEW020 SCT080 BKN300 29/25 Q1006 NOSIG RMK A2971 LGT RA W/ OCNL TS NW=
METAR RPLB 270600Z 20011KT 9000 VCSH FEW018CB FEW020 BKN300 32/25 Q1009 NOSIG RMK A2980 CB N W/ VCSH =
METAR RPLB 270500Z 21011KT 9999 FEW020 BKN300 32/25 Q1007 NOSIG RMK A2974=
METAR RPLB 270400Z 21010KT 9999 FEW020 SCT300 32/25 Q1008 NOSIG RMK A2977=
METAR RPLB 270300Z 23007KT 210V280 9999 FEW020 SCT300 32/26 Q1008 NOSIG RMK A2977=
METAR RPLB 270200Z 04003KT 330V130 9999 FEW020 SCT300 32/25 Q1009 NOSIG RMK A2980=
METAR RPLB 270100Z 03004KT 9999 FEW020 SCT300 31/25 Q1009 NOSIG RMK A2980=
METAR RPLB 270000Z 04003KT 340V070 9999 FEW020 BKN300 28/24 Q1009 NOSIG RMK A2980=
METAR RPLB 262300Z 06003KT 9999 FEW020 BKN300 26/26 Q1008 NOSIG RMK A2977=
METAR RPLB 262200Z 04004KT 9999 FEW020 SCT080 BKN300 26/24 Q1008 NOSIG RMK A2977=
METAR RPLB 262100Z 06004KT 9999 FEW020 BKN300 26/24 Q1007 NOSIG RMK A2974=
METAR RPLB 262000Z VRB01KT 9999 FEW020 BKN300 27/23 Q1007 NOSIG RMK A2974=
METAR RPLB 261900Z 04005KT 9999 FEW020 BKN300 26/23 Q1008 NOSIG RMK A2977=
METAR RPLB 261800Z 05004KT 9999 FEW020 BKN300 26/23 Q1008 NOSIG RMK A2977=
METAR RPLB 261700Z 05004KT 9999 FEW020 SCT300 26/24 Q1009 NOSIG RMK A2980=
METAR RPLB 261600Z 05004KT 9999 FEW020 26/24 Q1009 NOSIG RMK A2980=
METAR RPLB 261500Z 07003KT 9999 FEW020 SCT080 27/24 Q1009 NOSIG RMK A2980=
METAR RPLB 261400Z VRB03KT 9999 FEW018CB FEW020 28/24 Q1009 RETS RMK A2980 OCNL LTG S=
METAR RPLB 261300Z 04005KT 9000 -TSRA FWE018CB SCT020 29/24 Q1009 NOSIG RMK A2980 OCNL TS E=
METAR RPLB 261200Z 36005KT 320V050 9999  FEW018CB FEW020 29/25 Q1008 NOSIG RMK A2977 FRQ LTG NE=
METAR RPLB 261100Z 33005KT 270V050 9999 FEW020 29/24 Q1008 NOSIG RMK A2977=
METAR RPLB 261000Z 34006KT 290V030 9999 FEW020 SCT300 30/24 Q1007 NOSIG RMK A2974=
METAR RPLB 260900Z 34006KT 310V030 9999 FEW020 BKN300 31/25 Q1007 NOSIG RMK A2974= 
METAR RPLB 260800Z 34003KT 290V010 9999 FEW020 32/25 Q1006 NOSIG RMK A2971=
METAR RPLB 260700Z 32004KT 290V010 9999 SCT020 32/25 Q1007 NOSIG RMK A2974=
METAR RPLB 260600Z 22007KT 9999 FEW020 BKN080 31/24 Q1007 NOSIG RMK A2974=
METAR RPLB 260500Z 22007KT 9999 SCT020 BKN080 32/24 Q1008 NOSIG RMK A2977=
METAR RPLB 260400Z 12006KT 070V170 9999 SCT020 BKN080 33/23 Q1009 NOSIG RMK A2980=
METAR RPLB 260300Z 08009KT 030V110 9999 FEW020 BK3N00 33/23 Q1009 NOSIG RMK A2980=
METAR RPLB 260200Z 08008KT 030V120 9999 FEW020 BKN300 32/24 Q1010 NOSIG RMK A2983=
METAR RPLB 260100Z 03003KT 330V090 9999 FEW020 BKN300 31/25 Q1010 NOSIG RMK A2983=
METAR RPLB 260000Z 04003KT 020V080 9999 FEW020 BKN300 28/24 Q1010 NOSIG RMK A2983=
METAR RPLB 252300Z 05003KT 020V080 9999 FEW020 BKN300 25/24 Q1010 NOSIG RMK A2983=
METAR RPLB 252200Z VRB02KT 9999 FEW020 SCT300 25/24 Q1009 NOSIG RMK A2980=
METAR RPLB 252100Z 06005KT 9999 FEW020 25/24 Q1008 NOSIG RMK A2977=
METAR RPLB 252000Z 09004KT 9999 FEW020 25/23 Q1009 NOSIG RMK A2980=
METAR RPLB 251900Z 05003KT 9999 FEW020 25/23 Q1009 NOSIG RMK A2980=
METAR RPLB 251800Z 03003KT 9999 FEW020 27/23 Q1009 NOSIG RMK A2980=
METAR RPLB 251700Z 34003KT 300V020 9999 FEW020 27/23 Q1009 NOSIG RMK A2980=
METAR RPLB 251600Z 05004KT 9999 FEW020 26/24 Q1009 NOSIG RMK A2980=
METAR RPLB 251500Z 10002KT 320V060 9999 FEW020 27/24 Q1010 NOSIG RMK A2983=
METAR RPLB 251400Z 02005KT 320V060 9999 FEW020 SCT080 27/24  Q1011 NOSIG RMK A2985=
METAR RPLB 251300Z 36007KT 320V040 9999 FEW018CB FEW020 SCT080 28/24 Q1010 RMK A2983 FRQ LTG W-NW=
METAR RPLB 251200Z 02003KT 300V060 9999 FEW018CB FEW020 SCT080 29/24 Q1010 RMK A2983 FRQ LTG -NW=

 

RPLI (LAO) – LAOAG INTERNATIONAL AIRPORT

METAR RPLI 271200Z 04002KT 9999 FEW018 SCT290 29/26 Q1007 RMK A2974=
METAR RPLI 271100Z 18004KT 9999 FEW018 SCT290 30/26 Q1006 NOSIG RMK A2971=
METAR RPLI 271000Z 18002KT 9999 FEW017CB FEW018 31/25 Q1006 NOSIG RMK A2971 CB S=
METAR RPLI 270900Z 29004KT 9999 FEW017CB FEW018 33/25 Q1006 NOSIG RMK A2974 CB NNE S=
METAR RPLI 270800Z 29008KT 9999 FEW018TCU 33/25 Q1006 NOSIG RMK A2971 TCU NNE= 
METAR RPLI 270700Z 25008KT 9999 FEW018 34/26 Q1005 NOSIG RMK A2968 =
METAR RPLI 270600Z 25010KT 9999 FEW018 33/24 Q1006 NOSIG RMK A2971=
METAR RPLI 270500Z 25010KT 9999 FEW018 34/25 Q1006 NOSIG RMK A2971= 
METAR RPLI 270400Z 34010KT 9999 FEW018 34/24 Q1007 NOSIG RMK A2974=
METAR RPLI 270300Z 29006KT 9999 FEW018 33/25 Q1007 NOSIG RMK A2974=
METAR RPLI 270200Z 11004KT 9999 FEW018 32/27 Q1007 NOSIG RMK A2974=
METAR RPLI 270100Z 11004KT 9999 FEW018 31/26 Q1008 NOSIG RMK A2977=
METAR RPLI 270000Z 11002KT 9999 FEW018 29/25 Q1007 NOSIG RMK A2974=
METAR RPLI 262300Z 00000KT 9999 FEW018 27/25 Q1007 NOSIG RMK A2974=
METAR RPLI 262200Z 00000KT 8000 FEW018 25/24 Q1006 NOSIG RMK A2971=
METAR RPLI 262100Z 00000KT 9999 FEW018 26/25 Q1007 NOSIG RMK A2974=
METAR RPLI 261800Z 00000KT 9999 FEW018 BKN090 27/25 Q1007 NOSIG RMK A2974=
METAR RPLI 261500Z 04004KT 9999 FEW018 27/24 Q1008 NOSIG RMK A2977=
METAR RPLI 261200Z 04008KT 9999 FEW018 SCT290 28/25 Q1008 NOSIG RMK A2977=
METAR RPLI 261100Z 04004KT 9999 FEW018 BKN290 29/27 Q1007 NOSIG RMK A2974=
METAR RPLI 261000Z 09004KT 8000 SCT017CB BKN280 30/28 Q1007 NOSIG RMK A2974 NE-E S NW=
METAR RPLI 260900Z 14006KT 8000 VCSH SCT017CB BKN100 31/27 Q1006 RETS NOSIG RMK A2971 CB N-S VCSH N-S=
METAR RPLI 260800Z 07006KT 8000 TS VCSH SCT017CB BKN100 31/27 Q1006 NOSIG RMK A2971 CB NE-S NW VCSH NE-SE=
METAR RPLI 260700Z 34006KT 9999 TS SCT017CB SCT100 BKN290 31/26 Q1006 NOSIG RMK A2971 CB NE-S=
METAR RPLI 260600Z 09002KT 9999 FEW017CB FEW018 SCT100 33/25 Q1007 NOSIG RMK A2974 CB N NE=
METAR RPLI  260500Z 32006KT 9999 FEW017CB  FEW018 SCT290 33/25 Q1007 NOSIG RMK A2974 CB NE-E=
METAR RPLI 260400Z 34006KT 9999 FEW017CB FEW018 SCT100 32/26 Q1008 NOSIG RMK A2977 CB N NE=
METAR RPLI 260300Z 34006KT 9999 FEW017CB SCT280 32/26 Q1009 NOSIG RMK A2980 CB NW N=
METAR RPLI 260200Z 32008KT 9999 FEW017CB FEW018 32/26 Q1009 NOSIG RMK A2980 CB NNW=
METAR RPLI 260100Z 22004KT 9999 FEW017CB FEW018 30/24 Q1009 NOSIG RMK A2980 CB N=
METAR RPLI 260000Z 09004KT 9999 FEW018 29/24 Q1009 NOSIG RMK A2980=
METAR RPLI 252300Z 00000KT 9999 FEW018 SCT100 26/24 Q1009 NOSIG RMK A2980=
METAR RPLI 252200Z 14002KT 9999 FEW018 25/23 Q1008 NOSIG RMK A2977=
METAR RPLI 252100Z 00000KT 9999 FEW018 24/24 Q1008 NOSIG RMK A2977=
METAR RPLI 251800Z 00000KT 9999 FEW018 25/24 Q1008 NOSIG RMK A2977=
METAR RPLI 251500Z 11004KT 9999 FEW018 SCT290 26/24 Q1009 NOSIG RMK A2980=
METAR RPLI 251200Z 18004KT 9999 FEW018 BKN100 27/25 Q1009 NOSIG RMK A2980=

 

RPVP (PPS) – PUERTO PRINCESA INTERNATIONAL AIRPORT

METAR RPVP 271200Z 27006KT 9999 FEW019 27/24 Q1008 RMK A2977=
METAR RPVP 271100Z 33004KT 9999 FEW019 28/24 Q1008 RMK A2977=
METAR RPVP 271000Z 27004KT 9999 FEW019 SCT250 28/224 Q1007 RMK A2974=
METAR RPVP 270900Z 27006KT 9999 FEW017CB 29/24 Q1007 RMK A2974 CB W=
METAR RPVP 270800Z 15006KT 9999 -TS FEW017CB 32/25 Q1006 RMK A2971 CB W-NW W/ OCNL TS=
METAR RPVP 270700Z 15008KT 9999 -TS FEW017CB 32/25 Q1006 RMK A2971 CB W-NW/NNW W/ OCNL  TS=
METAR RPVP 270600Z 18008KT 9999 FEW017CB 32/26 Q1006 RMK A2971 CB W-NW-N=
METAR RPVP 270500Z 18008KT 9999 FEW017CB 32/26 Q1007 RMK A2974 CB N=
METAR RPVP 270400Z 18008KT 9999 FEW017CB BKN250 31/25 Q1008 RMK A2977 CB WNW=
METAR RPVP 270300Z 18008KT 9999 FEW019 32/26 Q1008 RMK A2977=
METAR RPVP 270200Z 18008KT 9999 FEW019 31/25 Q1009 RMK A2980=
METAR RPVP 270100Z 33006KT 9999 FEW019 SCT250 30/25 Q1009 RMK A2980=
METAR RPVP 270000Z 27006KT 9999 FEW017CB SCT250 28/24 Q1009 RETS RMK A2980 CB NE/E=
METAR RPVP 262300Z 27004KT 9999 TS FEW017CB SCT080 26/24 Q1008 RMK A2977 CB/OCNL TS NE=
METAR RPVP 262200Z 27006KT 9999 FEW017CB SCT080 26/24 Q1008 RMK A2977 CB NE,E-SE=
METAR RPVP 262100Z 27004KT 9999 FEW019 BKN080 26/23 Q1008 RMK A2977=
METAR RPVP 261800Z 29004KT 9999 FEW019 BKN080 26/24 Q1008 RMK A2977=
METAR RPVP 261500Z 33004KT 9999 FEW017CB SCT240 27/24 Q1009 RMK A2980 CB/OCNL LTG NW=
METAR RPVP 261200Z 36006KT 9999 FEW019 28/25 Q1008 RMK A2977=
METAR RPVP 261100Z 03004KT 9999 FEW019 28/24 Q1007 RMK A2974=
METAR RPVP 261000Z 03004KT 9999 FEW019 29/25 Q1006 RMK A2971=
METAR RPVP 260900Z 03010KT 9999 FEW019 30/25 Q1006 RMK A2971=
METAR RPVP 260800Z 09008KT 9999 FEW018 31/25 Q1006 RMK A2971=
METAR RPVP 260700Z 21004KT 9999 FEW019  31/26 Q1006 RMK A2971=
METAR RPVP 260600Z 36006KT 9999 FEW017CB 30/26 Q1007 RMK A2974 CB NNW=
METAR RPVP 260500Z 06012KT 9999 -TSSHRA SCT017CB BKN080 29/25 Q1008 RMK A2977 CB NW,E-SE,SW OCNL TS=
METAR RPVP 260400Z 06004KT 9999 -TS SCT017CB BKN080 31/25 Q1009 RMK A2980 CB E/S-SW/NW-N/OCNL TS=
METAR RPVP 260300Z 18002KT 9999  -TS SCT017CB BKN080  30/25 Q1009 RMK A2980 CB NW-NNW/E-SE-SSE/OCNL TS=
METAR RPVP 260200Z 18002KT 9999 TS FEW017CB BKN080 29/25 Q1009 RMK A2980 CB/OCNL TS SW/NW/ESE=
METAR RPVP 260100Z 27002KT 9999 TS FEW017CB BKN080 28/25 Q1010 RESHRA RMK A2983 CB/OCNL TS SSW=
METAR RPVP 260000Z 27006KT 9999 TS FEW017CB OVC080 26/24 Q1009 RESHRA RMK A2980 CB/OCNL TS ENE/S=
METAR RPVP 252300Z 27004KT 9999 TS FEW017CB BKN080 26/24 Q1009 RESHRA RMK A2980 CB/OCNL TS E/S/SW=
METAR RPVP 252200Z 27004KT 9999 TS FEW017CB BKN080 26/24 Q1008 RMK A2977 CB/OCNL LTG SE=
METAR RPVP 252100Z 27004KT 9999 FEW017CB SCT080 26/24 Q1008 RMK A2977 CB/OCNL LTG SE=
METAR RPVP 251800Z 27004KT 9999 FEW017CB 27/25 Q1008 RMK A2977 CB/OCNL LTG SE/SW=
METAR RPVP 251500Z 27004KT 9999 -SHRA FEW017CB BKN080 28/25 Q1009 RETS RMK A2980 CB/OCNL LTG N=
METAR RPVP 251200Z 09002KT 9999 FEW017CB BKN080 29/25 Q1009 RMK A2980 CB NW W/ OCNL LTG=

 

RPVD (DGT) – SIBULAN AIRPORT (DUMAGUETE AIRPORT

METAR RPVD 271200Z 27004KT 9999 FEW015 28/25 Q1008 RMK A2977=
METAR RPVD 270900Z 11004KT 9999 FEW015 SCT070 BKN220 31/26 Q1006 RMK A2971=
METAR RPVD 270800Z 02006KT 9999 FEW014CB FEW015 BKN220 31/25 Q1005 RMK A2968 CB N NW=
METAR RPVD 270700Z 36006KT 9999 FEW014CB FEW015 BKN220 32/25 Q1005 RMK A2968 CB N,NW=
METAR RPVD 270600Z 07006KT 9999 FEW014CB FEW015 SCT070 31/24 Q1005 RMK A2968 CB NNW/TCU SW=
METAR RPVD 270600Z 07006KT 9999 FEW014CB FEW015 SCT070 31/24 Q1005 RMK A2968 CB NNW TCU SW=
METAR RPVD 270500Z 14004KT 9999 VCSH FEW015CB ST070 31/24 Q1006 RMK A2971 CB NW/N W/VCSH=
METAR RPVD 270400Z 32010KT 9999 VCSH FEW014CB BKN015 32/25 Q1006 RMK A2971 CB NE/N/TCU SW-W-NWW/ VCSH=
METAR RPVD 270300Z 25006KT 9999 VCSH FEW014CB SCT015 32/25 Q1007 RMK A2974 CB NE/TCU W W/VCSH=
METAR RPVD 270200Z 07008KT 9999 FEW015 31/26 Q1008 RMK A2977=
METAR RPVD 270100Z 07006KT 9999 FEW014CB FEW015 SCT220 31/24 Q1009 RMK A2980 CB NE, TCU NW=
METAR RPVD 270000Z 32006KT 9999 FEW015TCU SCT220 30/25 Q1008 RMK A2977 TCU NNE=
METAR RPVD 262100Z 27004KT 9999 FEW015 BKN070 26/23 Q1007 RMK A2974=
METAR RPVD 261800Z 00000KT 9999 FEW015 BKN070 26/23 Q1007 RMK A2974=
METAR RPVD 261500Z 25004KT 9999 FEW015 SCT220 27/23 Q1008 RMK A2977=
METAR RPVD 261200Z 34004KT 9999 FEW015 28/25 Q1008 RMK A2977=
METAR RPVD 260900Z 34006KT 9999 FEW014CB  FEW015 SCT070 30/25 Q1006 RMK A2971 CB N/TCU E=
METAR RPVD 260800Z 07010KT 9999 FEW014CB SCT015 32/25 Q1006 RMK A2971 CB NW,NE=
METAR RPVD 260700Z 14006KT 9999 VCSH FEW014CB FEW015 SCT070 32/25 Q1005 RMK A2968 CB N,NW,NE W/VCSH=
METAR RPVD 260600Z 25012KT 9999 VCSH FEW014CB FEW015 SCT070 31/23 Q1005 RMK A2968 CB W/NNW/NE W/ VCSH=
METAR RPVD 260500Z  16008KT 9999 VCSH FEW015CB SCT070 32/25 Q1006 RMK A2971 CB NE,N/S/CB SW,W WNW W/VCSH=
METAR RPVD 260400Z 11008KT 9999 FEW014CB FEW015 32/25 Q1007 RMK A2983 CB SW/W-WNW=
METAR RPVD 260300Z  04008KT 9999 SCT015TCU 31/25 Q1007 RMK A2974 TCU NE/W-SW=
METAR RPVD 260200Z 04008KT 9999 FEW015 31/25 Q1008 RMK A2977=
METAR RPVD 260100Z 34004KT 9999 FEW015 SCT070 29/25 Q1008 RMK A2977=
METAR RPVD 260000Z 00000KT 9999 SCT015 BKN220 28/25 Q1009 RMK A2980=
METAR RPVD 252100Z 22002KT 9999 FEW015 BKN070 26/24 Q1007 RMK A2974=
METAR RPVD 251800Z 00000KT 9999 FEW015 OVC070 26/24 Q1007 RMK A2974=
METAR RPVD 251500Z 22006KT 9999 FEW015 SCT070 OVC220 27/24 Q1009 RMK A2980=
METAR RPVD 251200Z 20002KT 9999 FEW015 BKN220 27/26 Q1008 RMK A2977=

 

RPMR (GES) – GENERAL SANTOS INTERNATIONAL AIRPORT

METAR RPMR 270900Z 34007KT 9999 FEW016CB 29/24 Q1006 RMK A2971 CB NNW=
METAR RPMR 270800Z 31008KT 280V340 9999 FEW016CB 30/24 Q1005 RMK A2968 CB NNW=
METAR RPMR 270700Z 32011KT 9999 FEW016CB 33/24 Q1005 RMK A2968 CB NW=
METAR RPMR 270600Z 15014KT 9999 FEW016CB 33/24 Q1005 RETS RMK A2968 CB NW=
METAR RPMR 270500Z 15014KT 9999 TS FEW016CB 32/26 Q1006 RMK A2971 CB NW=
METAR RPMR 270400Z 14011KT 9999 FEW018 31/25 Q1008 RMK A2977= 
METAR RPMR 270300Z 12008KT 090V150 9999 FEW018 31/24 Q1009 RMK A2980=
METAR RPMR 270200Z 12007KT 080V150 9999 FEW018 30/24 Q1010 RMK A2983=
METAR RPMR 270100Z 08004KT 010V120 9999 FEW017TCU 30/24 Q1010 RMK A2983 TCU SW=
METAR RPMR 270000Z 02003KT 310V080 9999 FEW018 27/24 Q1010 RMK A2983=
METAR RPMR 260900Z 15009KT 9999 FEW018 SCT080 29/23 Q1007 RMK A2974=
METAR RPMR 260800Z 15009KT 9999 FEW016CB SCT080 30/23 Q1006 RMK A2971 CB NNW=
METAR RPMR 260700Z 14013KT 9999 FEW016CB SCT080 31/24 Q1006 RMK A2971 CB NNW=
METAR RPMR 260600Z 13013KT 9999 FEW017TCU SCT250 31/24 Q1006 RMK A2971 TCU NW=
METAR RPMR 260500Z 15012KT 9999 FEW017TCU 31/24 Q1007 RMK A2974 TCU NW=
METAR RPMR 260400Z 15008KT 120V210 9999 FEW018 31/23 Q1008 RMK A2977=
METAR RPMR 260300Z 14007KT 090V170 9999 FEW018 SCT250 30/22 Q1009 RMK A2980=
METAR RPMR 260200Z 12004KT 050V180 9999 FEW018 SCT250 30/23 Q1009 RMK A2980=
METAR RPMR 260100Z VRB03KT 9999 FEW018 29/22 Q1010 RMK A2983=
METAR RPMR 260000Z VRB01KT 9999 FEW018 28/22 Q1010 RMK A2983=
METAR RPMR 250900Z 17008KT 9999 FEW018 BKN080 26/23 Q1008 RMK A2977=
METAR RPMR 250800Z 16010KT 9999 FEW018 BKN080 27/23 Q1007 RMK A2974=
METAR RPMR 250700Z 15011KT 9999 FEW018 BKN080 28/24 Q1007 RMK A2974=
METAR RPMR 250600Z 15012KT 9999 VCSH FEW018 BKN080 29/24 Q1007 RMK A2974 VCSH NNW=
METAR RPMR 250500Z 16012KT 9999 FEW018 BKN080 28/24 Q1008 RMK A2977=
METAR RPMR 250400Z 13007KT 9999 FEW018 BKN080 28/24 Q1009 RMK A2980=
METAR RPMR 250300Z 12005KT 9999 SCT018 BKN080 27/23 Q1010 RMK A2983=
METAR RPMR 250200Z 14003KT 9999 VCSH FEW018 BKN080 26/23 Q1011 RMK A2985 VCSH N/NW=
METAR RPMR 250100Z 05003KT 9999 VCSH FEW018 OVC080 25/23 Q1011 RMK A2985 VCSH ALQDS=
METAR RPMR 250000Z VRB02KT 9999 -RA FEW018 OVC080 24/23 Q1011 RMK A2985=

 

RPMD (DVO) – FRANCISCO BANGOY INTERNATIONAL AIRPORT

METAR RPMD 271400Z  23003KT 9999 -TS FEW015CB FEW016 SCT090 BKN260 27/25 Q1009 RMK A2980 OCNL TS SE-S, OCNL LTG SE-S NE=
METAR RPMD 271300Z 26004KT 230V290 9999 FEW016 BKN090 BKN260 28/25 Q1009 RMK A2980=
METAR RPMD 271200 23005KT 9999 FEW015CB FEW016 BKN090 BKN260 28/25 Q1008 RMK A2977 LTG OCNL SW-W=
METAR RPMD 271100Z 18005KT 9999 FEW015CB FEW016 SCT090 29/26 Q1007 RMK A2974 LTG OCNL N-NNE TCU S=
METAR RPMD 271000Z 18007KT 9999 SCT015CB SCT090 30/25 Q1006 RMK A2971 LTG OCNL NNE/CB NNE E/S=
METAR RPMD 270900Z 19009KT 9999 SCT015CB SCT090 30/24 Q1006 RMK A2971 CB E,SW-W=
METAR RPMD 270800Z 18008KT 150V210 9999 -SHRA FEW015CB SCT090 31/24 Q1005 RMK A2968 RETS CB E-NE,NW =
METAR RPMD 270700Z 17006KT 140V200 9999 -TS FEW015CB SCT290 32/24 Q1005 RMK A2968 VCSH W-NW/CB W-NNW W/TS= 
METAR RPMD 270600Z 16008KT 130V190 9999 VCSH FEW015CB 33/24 Q1005 RMK A2968 VCSH W/CB W-NW=
METAR RPMD 2702500Z 15008KT 9999 FEW016 SCT290 32/24 Q100 RMK A2968 TCU W=
METAR RPMD 270400Z 15006KT 110V180 9999 FEW016 SCT290 33/23 Q1006 RMK A2971=
METAR RPMD 270300Z VRB05KT 9999 FEW016 SCT290 31/24 Q1008 RMK A2977=
METAR RPMD 270200Z 16005KT 110V210 9999 VCSH FEW016 SCT290 30/25 Q1009 RMK A2980 VCSH W-NW=
METAR RPMD 270100Z 16006KT 100V200 9999 FEW016 30/24 Q1009 RMK A2980=
METAR RPMD 270000Z 18004KT 130V240 9999 FEW016 29/24 Q1009 RMK A2980=
METAR RPMD 262300Z 00000KT 9999 FEW016 27/26 Q1009 RMK A2980=
METAR RPMD 262200Z VRB02KT 9999 FEW016 SCT290 25/25 Q1009 RMK A2980=
METAR RPMD 262100Z 32003KT 9999 FEW016 SCT260 25/25 Q1008 RMK A2977=
METAR RPMD 262000Z 33003KT 9999 FEW016 SCT260 25/25 Q1008 RMK A2977=
METAR RPMD 261900Z 35002KT 9999 FEW016 SCT090 BKN260 25/25 Q1008 RMK A2977=
METAR RPMD 261800Z 33002KT 9999 FEW016 BKN090 BKN260 25/25 Q1008 RMK A2977=
METAR RPMD 261700Z 34003KT 310V010 9999 FEW016 BKN090 BKN260 25/25 Q1009 RERA RMK A2980=
METAR RPMD 261600Z 33003KT 310V010 9999 -RA SCT015CB BKN080 BKN260 25/25 Q1009 RMK A2980 CB ESE-S=
METAR RPMD 261500Z 33003KT 260V040 9999 -SHRA FEW015CB FEW016 OVC080 25/25 Q1010 RMK A2983 CB W=
METAR RPMD 261400Z 36005KT 320V030 9999 FEW016 BKN090  OVC260 27/24 Q1010 RMK A2983 TCU W=
METAR RPMD 261300Z 36003KT 9999 FEW016 BKN260 28/25 Q1009 RMK A2980=
METAR RPMD 261200Z 18004KT 9999 FEW016 BKN090 OVC260 29/25 Q1009 RMK A2980=
METAR RPMD 261100Z 16005KT 120V190 9999 FEW016 BKN090 OVC260 29/24 Q1008 RMK A2977= 
METAR RPMD 261000Z 19007KT 9999 FEW015CB SCT090 BKN260 29/24 Q1008 RMK A2977 CB N-NNE=
METAR RPMD 260900Z 19009KT 9999 VCSH SCT015CB SCT090 BKN260 30/23 Q1007 RMK A2974 VCSH WSW-W/CB WSW-W/N=
METAR RPMD 260800Z 20010KT 9999 VCSH SCT015CB SCT090 BKN260 30/24 Q1006 RMK A2971 VCSH NE/CB NE/W/NW-N=
METAR RPMD 260700Z 19010KT 160V220 9999 SCT015CB SCT090 BKN290 31/23 Q1005 RMK A2968 CB SW,W,NW-N-NE=
METAR RPMD 260600Z 16007KT 9999 FEW015CB BKN290 32/22 Q1006 RMK A2971 CB SW/W/NNW/NE=
METAR RPMD 260500Z 18008KT 130V200 9999 FEW015CB SCT290 32/22 Q1006 RMK A2971 CB SW/W/NW=
METAR RPMD 260400Z 18007KT 130V220 9999 FEW015CB SCT290 31/23 Q1007 RMK A2974 CB S=
METAR RPMD 260300Z 15006KT 120V180 9999 FEW016 SCT290 31/24 Q1008 RMK A2977=
METAR RPMD 260200Z VRB02KT 9999 FEW016 SCT290 30/26 Q1008 RMK A2977=
METAR RPMD 260100Z 06005KT 030V090 9999 FEW016 SCT290 27/25 Q1009 RMK A2980=
METAR RPMD 260000Z 03004KT 330V090 9999 FEW016 SCT290 26/25 Q1010 RMK A2983=
METAR RPMD 252300Z 03004KT 9999 FEW016 SCT290 25/25 Q1009 RMK A2980=
METAR RPMD 252200Z 34003KT 310V020 9999 FEW016 BKN290 24/24 Q1009 RMK A2980=
METAR RPMD 252100Z VRB02KT 9999 FEW016 SCT090 24/24 Q1008 RMK A2977=
METAR RPMD 252000Z 02004KT 9999 FEW016 BKN090 BKN260 24/24 Q1008 RMK A2977=
METAR RPMD 251900Z VRB02KT 9999 FEW016 BKN090 BKN260 24/24 Q1008 RMK A2977=
METAR RPMD 251800Z VRB02KT 9999 FEW016 BKN090 BKN260 24/24 Q1008 RMK A2977=
METAR RPMD 251700Z VRB02KT 9999 FEW016 BKN090 BKN260 24/24 Q1009 RMK A2980=
METAR RPMD 251600Z 32003KT 270V360 9999 SCT016 BKN090 BKN260 24/24 Q1010 RERA RMK A2983=
METAR RPMD 251500Z 02003KT 7000 -RA FEW016 OVC080 24/24 Q1011 RMK A2985=
METAR RPMD 251400Z VRB02KT 9999 FEW016 BKN090 OVC260 24/24 Q1011 RERA RMK A2985=
METAR RPMD 251300Z 24005KT 7000 -RA FEW015 OVC080 24/24 Q1011 RETS RMK A2985 LGT RA CONTUS=
METAR RPMD 251200Z 33009KT 300V360 5000 TS SHRA SCT015CB OVC080 24/24 Q1010 RMK A2983 TS N-E W/ OCNL LTG=

 

RPMZ (ZAM) – ZAMBOANGA INTERNATIONAL AIRPORT

METAR RPMZ 271200Z VRB02KT 9999 FEW017 SCT090 BKN300 27/24 Q1009 RMK A2980=
METAR RPMZ 271000Z 28005KT 9999 FEW017 BKN300 29/24 Q1007 RMK A2974=
METAR RPMZ 270900Z 27008KT 9999 FEW017 BKN300 30/24 Q1007 RMK A2974=
METAR RPMZ 270700Z 28009KT 240V300 9999 FEW017 30/26 Q1006 RMK A2971=
METAR RPMZ 270700Z  27006KT 230V310 9999 FEW017 31/25 Q1006 RMK A2971=
METAR RPMZ 270600Z VRB04KT 9999 FEW016CB FEW017 32/24 Q1007 RMK A2974 CB N=
METAR RPMZ 270500Z 17006KT 140V230 9999 FEW017 SCT090 31/24 Q1007 RMK A2974=
METAR RPMZ 270400Z 15007KT 100V200 9999 FEW016CB FEW017 SCT090 31/25 Q1008 RMK A2977 CB S/N=
METAR RPMZ 270300Z 16006KT 120V220 9999 FEW017 32/23 Q1009 RMK A2980=
METAR RPMZ 270200Z 16005KT 100V210 9999 FEW017 31/24 Q1009 RMK A2980=
METAR RPMZ 270100Z 15006KT 100V210 9999 FEW017 SCT300 30/25 Q1010 RMK A2983=
METAR RPMZ 270000Z 08004KT 050V110 9999 FEW017 30/25 Q1010 RMK A2983=
METAR RPMZ 262300Z VRB02KT 9999 FEW017 28/25 Q1009 RMK A2980=
METAR RPMZ 262200Z 01001KT 9999 FEW017 BKN300 25/24 Q1009 RMK A2980=
METAR RPMZ 262100Z VRB01KT 9999 FEW017 SCT300 25/24 Q1008 RMK A2977=
METAR RPMZ 261800Z 00000KT 9999 FEW017 BKN300 25/24 Q1008 RMK A2977=
METAR RPMZ 261500Z VRB02KT 9999 FEW017 SCT090 26/24 Q1010 RMK A2983=
METAR RPMZ 261200Z VRB02KT 9999 FEW017 BKN090 27/24 Q1009 RMK A2980=
METAR RPMZ 261000Z VRB01KT 9999 FEW016 FEW017 BKN090 28/24 Q1007 RMK A2974 CB SE=
METAR RPMZ 260900Z 24003KT 180V300 9999 FEW016CB FEW017 SCT090 30/24 Q1007 RMK A2974 CB N-NE=
METAR RPMZ 260800Z 25004KT 320V290 9999 FEW016CB FEW017 30/25 Q1006 RMK A2971 CB S=
METAR RPMZ 260700Z VRB02KT 9999 FEW016CB FEW017 BKN090 30/24 Q1006 RMK A2971 CB S=
METAR RPMZ 260600Z 19004KT 140V270 9999 FEW016CB FEW017 BKN090 29/23 Q1007 RMK A2974 CB NE=
METAR RPMZ 260500Z 18004KT 140V250 9999 FEW016CB FEW017 BKN090 28/23 Q1007 RMK A2974 CB NW-NE OHD=
METAR RPMZ 260400Z 17008KT 120V220 9999 FEW016CB FEW017 BKN090 32/26 Q1008 RMK A2977 CB NW-NE /SE-SW/OHD=
METAR RPMZ 260300Z 06003KT 360V150 9999 FEW016CB FEW017 BKN090 31/25 Q1009 RMK A2980 CB S/NW/OHD=
METAR RPMZ 260200Z 02003KT 340V090 9999 FEW016CB FEW017 BKN090 30/25 Q1009 RMK A2980 CB E/S/OHD=
METAR RPMZ 260100Z 07004KT 360V160 9999 FEW016CB FEW017 BKN300 30/25 Q1010 RMK A2983 CB NE-E=
METAR RPMZ 260000Z 06003KT 020V090 9999 FEW016CB FEW017 BKN300 28/25 Q1009 RMK A2980 CB NE-E=
METAR RPMZ 252300Z 00000KT 9999 FEW016CB FEW017 SCT090 BKN300 26/24 Q1009 RMK A2980 CB NE-E=
METAR RPMZ 252200Z 04001KT 9999 FEW017 BKN300 25/23 Q1008 RMK A2977=
METAR RPMZ 252100Z 07002KT 9999 FEW017 BKN300 25/23 Q1008 RMK A2977=
METAR RPMZ 251800Z 06003KT 9999 FEW017 OVC300 25/23 Q1008 RMK A2977=
METAR RPMZ 251500Z VRB01KT 9999 FEW017 BKN090 26/24 Q1010 RMK A2983=
METAR RPMZ 251200Z VRB01KT 9999 FEW017 BKN090 26/24 Q1009 RMK A2980=

 

RPVK (KLO) – KALIBO INTERNATIONAL AIRPORT

METAR RPVK 271200Z 17002KT 8000 VCSH SCT016 BKN240 26/26 Q1008 RMK A2977 VCSH N/NE/SE=
METAR RPVK 270900Z 15001KT 9999 VCSH SCT016 BKN070 BKN240 28/27 Q1006 RMK A2971 VCSH NE/E/SE=
METAR RPVK 270800Z 09007KT 9999 -RA SCT016 BKN070 29/26 Q1006 RMK A2971=
METAR RPVK 270700Z 35013KT 9999 VCSH SCT016 BKN070 BKN240 31/26 Q1004 RMK A2965 VCSH NE/E/SE/W=
METAR RPVK 270600Z 35006KT 9999 VCSH SCT016 BKN070 BKN240 32/26 Q1005 RMK A2968 VCSH SE/S/SW/W=
METAR RPVK 270500Z 29004KT 9999 VCSH SCT016 BKN070 BKN240 32/26 Q1006 RMK A2871 VCSH S/SW/W A2971=
METAR RPVK 270400Z 33009KT 9999 VCSH SCT016 BKN070 BKN240 30/27 Q1007 RMK A2974 VCSH N/NE/E/SE/S/SW/W=
METAR RPVK 270300Z 04005KT 9999 VCSH SCT016 BKN070 BKN240 31/27 Q1008 RMK A2977 VCSH SE/S/SW/W= 
METAR RPVK 270200Z 06006KT 9999 VCSH SCT016 BKN070 BKN240 30/26 Q1008 RMK A2977 VCSH SW-NW=
METAR RPVK 270100Z 24002KT 9999 SCT016 BKN240 31/26 Q1008 RMK A2977=
METAR RPVK 270000Z 22003KT 9999 FEW016 SCT240 28/26 Q1008 RMK A2977=
METAR RPVK 262100Z 23002KT 9999 VCSH SCT016 BKN070 OVC240 25/25 Q1007 RMK A2974 VCSH N,SE,S,NW=
METAR RPVK 261800Z 20002KT 9999 SCT016 BKN240 26/26 Q1007 RMK A2974=
METAR RPVK 261500Z 24003KT 9999 VCSH SCT016 BKN240 27/27 Q1009 RMK A2980 VCSH N/NE/SE=
METAR RPVK 261200Z 28003KT 9999 SCT016 OVC240 29/26 Q1007 RMK A2974=
METAR RPVK 290900Z 33007KT 9999 VCSH SCT016 BKN070 BKN240 30/26 Q1006 RMK A2971 VCSH N/NE=
METAR RPVK 260800Z 36007KT 9999 VCSH SCT016 BKN070 BKN240 31/26 Q1006 RMK A2971 VCSH N/NE/S=
METAR RPVK 260700Z 35008KT 9999 SCT016 BKN240 31/25 Q1005 RMK A2968=
METAR RPVK 260600Z 03009KT 9999 SCT016 BKN240 31/25 Q1006 RMK A2971=
METAR RPVK 260500Z 05006KT 9999 SCT016 BKN240 31/25 Q1006 RMK A2971=
METAR RPVK 260400Z 05006KT 9999 SCT016 BKN240 31/26 Q1007 RMK A2974=
METAR RPVK 260300Z 06006KT 9999 SCT016 BKN240 31/26 Q1008 RMK A2977=
METAR RPVK 260200Z 09003KT 9999 SCT016 SCT070 BKN240 31/26 Q1008 RMK A2977=
METAR RPVK 260100Z 19001KT 9999 VCSH SCT016 SCT070 BKN240 30/25 Q1009 RMK A2980 VCSH N=
METAR RPVK 260000Z 18004KT 9999 SCT016 BKN240 28/26 Q1009 RMK A2980=
METAR RPVK 252100Z 16002KT 8000 VCSH SCT016 BKN070 BKN240 24/24 Q1008 RERA RMK A2977 VCSH N,SE,S,NW=
METAR RPVK 251800Z 21003KT 8000 -RA SCT016 BKN070 OVC240 25/25 Q1008 RMK A2977=
METAR RPVK 251500Z 23004KT 9999 VCSH SCT016 BKN240 25/25 Q1009 RMK A2980 VCSH SE/S/SW=
METAR RPVK 251200Z 23001KT 9999 VCSH SCT016 BKN070 BKN240 26/26 Q1008 RMK A2977 VCSH E/SE/SSW=